sensor_id;sensor_type;location;lat;lon;timestamp;P1;durP1;ratioP1;P2;durP2;ratioP2
8058;SDS011;75058;42.668;23.396;2024-01-10T00:02:29;2.77;;;1.60;;
8058;SDS011;75058;42.668;23.396;2024-01-10T00:04:59;3.80;;;1.80;;
8058;SDS011;75058;42.668;23.396;2024-01-10T00:07:28;4.47;;;2.23;;
8058;SDS011;75058;42.668;23.396;2024-01-10T00:09:56;3.93;;;2.00;;
8058;SDS011;75058;42.668;23.396;2024-01-10T00:12:27;3.23;;;1.90;;
8058;SDS011;75058;42.668;23.396;2024-01-10T00:14:59;5.13;;;1.80;;
8058;SDS011;75058;42.668;23.396;2024-01-10T00:17:29;3.67;;;1.77;;
8058;SDS011;75058;42.668;23.396;2024-01-10T00:19:57;4.70;;;2.00;;
8058;SDS011;75058;42.668;23.396;2024-01-10T00:22:27;3.10;;;1.97;;
8058;SDS011;75058;42.668;23.396;2024-01-10T00:24:57;3.13;;;1.70;;
8058;SDS011;75058;42.668;23.396;2024-01-10T00:27:26;3.50;;;1.63;;
8058;SDS011;75058;42.668;23.396;2024-01-10T00:29:54;8.33;;;2.23;;
8058;SDS011;75058;42.668;23.396;2024-01-10T00:32:23;2.60;;;1.50;;
8058;SDS011;75058;42.668;23.396;2024-01-10T00:34:51;4.90;;;2.40;;
8058;SDS011;75058;42.668;23.396;2024-01-10T00:37:20;4.70;;;1.90;;
8058;SDS011;75058;42.668;23.396;2024-01-10T00:39:50;4.87;;;2.23;;
8058;SDS011;75058;42.668;23.396;2024-01-10T00:42:18;7.13;;;2.40;;
8058;SDS011;75058;42.668;23.396;2024-01-10T00:44:46;6.27;;;2.53;;
8058;SDS011;75058;42.668;23.396;2024-01-10T00:47:14;6.40;;;2.43;;
8058;SDS011;75058;42.668;23.396;2024-01-10T00:49:42;4.63;;;2.30;;
8058;SDS011;75058;42.668;23.396;2024-01-10T00:52:10;4.10;;;1.50;;
8058;SDS011;75058;42.668;23.396;2024-01-10T00:54:38;4.23;;;2.17;;
8058;SDS011;75058;42.668;23.396;2024-01-10T00:57:08;5.13;;;1.83;;
8058;SDS011;75058;42.668;23.396;2024-01-10T00:59:36;5.37;;;1.83;;
8058;SDS011;75058;42.668;23.396;2024-01-10T01:02:04;2.87;;;1.00;;
8058;SDS011;75058;42.668;23.396;2024-01-10T01:04:32;1.37;;;1.10;;
8058;SDS011;75058;42.668;23.396;2024-01-10T01:07:01;5.10;;;2.03;;
8058;SDS011;75058;42.668;23.396;2024-01-10T01:09:29;3.97;;;1.67;;
8058;SDS011;75058;42.668;23.396;2024-01-10T01:11:57;4.23;;;1.90;;
8058;SDS011;75058;42.668;23.396;2024-01-10T01:14:26;5.30;;;2.40;;
8058;SDS011;75058;42.668;23.396;2024-01-10T01:16:55;7.30;;;2.40;;
8058;SDS011;75058;42.668;23.396;2024-01-10T01:19:23;7.10;;;2.17;;
8058;SDS011;75058;42.668;23.396;2024-01-10T01:21:52;4.40;;;2.23;;
8058;SDS011;75058;42.668;23.396;2024-01-10T01:24:19;5.00;;;2.43;;
8058;SDS011;75058;42.668;23.396;2024-01-10T01:26:47;4.40;;;2.10;;
8058;SDS011;75058;42.668;23.396;2024-01-10T01:29:16;5.23;;;2.37;;
8058;SDS011;75058;42.668;23.396;2024-01-10T01:31:45;3.30;;;1.70;;
8058;SDS011;75058;42.668;23.396;2024-01-10T01:34:14;3.63;;;1.90;;
8058;SDS011;75058;42.668;23.396;2024-01-10T01:36:42;6.70;;;2.63;;
8058;SDS011;75058;42.668;23.396;2024-01-10T01:39:10;6.03;;;2.60;;
8058;SDS011;75058;42.668;23.396;2024-01-10T01:41:39;5.17;;;2.20;;
8058;SDS011;75058;42.668;23.396;2024-01-10T01:44:08;6.43;;;2.37;;
8058;SDS011;75058;42.668;23.396;2024-01-10T01:46:36;11.90;;;2.83;;
8058;SDS011;75058;42.668;23.396;2024-01-10T01:49:08;8.50;;;3.87;;
8058;SDS011;75058;42.668;23.396;2024-01-10T01:51:38;10.67;;;3.83;;
8058;SDS011;75058;42.668;23.396;2024-01-10T01:54:07;10.27;;;3.43;;
8058;SDS011;75058;42.668;23.396;2024-01-10T01:56:37;10.10;;;3.40;;
8058;SDS011;75058;42.668;23.396;2024-01-10T01:59:08;9.33;;;3.37;;
8058;SDS011;75058;42.668;23.396;2024-01-10T02:01:36;7.80;;;2.70;;
8058;SDS011;75058;42.668;23.396;2024-01-10T02:04:05;16.83;;;2.57;;
8058;SDS011;75058;42.668;23.396;2024-01-10T02:06:34;8.00;;;3.60;;
8058;SDS011;75058;42.668;23.396;2024-01-10T02:09:03;9.10;;;3.37;;
8058;SDS011;75058;42.668;23.396;2024-01-10T02:11:31;5.37;;;2.33;;
8058;SDS011;75058;42.668;23.396;2024-01-10T02:13:59;6.67;;;3.03;;
8058;SDS011;75058;42.668;23.396;2024-01-10T02:16:28;3.63;;;1.77;;
8058;SDS011;75058;42.668;23.396;2024-01-10T02:18:57;6.20;;;2.20;;
8058;SDS011;75058;42.668;23.396;2024-01-10T02:21:28;7.77;;;3.50;;
8058;SDS011;75058;42.668;23.396;2024-01-10T02:23:57;4.23;;;2.40;;
8058;SDS011;75058;42.668;23.396;2024-01-10T02:26:27;4.03;;;1.93;;
8058;SDS011;75058;42.668;23.396;2024-01-10T02:28:55;6.57;;;2.27;;
8058;SDS011;75058;42.668;23.396;2024-01-10T02:31:24;4.20;;;2.10;;
8058;SDS011;75058;42.668;23.396;2024-01-10T02:33:55;6.37;;;2.23;;
8058;SDS011;75058;42.668;23.396;2024-01-10T02:36:23;4.13;;;1.70;;
8058;SDS011;75058;42.668;23.396;2024-01-10T02:38:52;8.70;;;2.70;;
8058;SDS011;75058;42.668;23.396;2024-01-10T02:41:20;5.03;;;1.73;;
8058;SDS011;75058;42.668;23.396;2024-01-10T02:43:49;6.13;;;2.23;;
8058;SDS011;75058;42.668;23.396;2024-01-10T02:46:17;4.80;;;2.57;;
8058;SDS011;75058;42.668;23.396;2024-01-10T02:48:49;4.40;;;2.63;;
8058;SDS011;75058;42.668;23.396;2024-01-10T02:51:17;6.97;;;2.00;;
8058;SDS011;75058;42.668;23.396;2024-01-10T02:53:45;3.10;;;2.10;;
8058;SDS011;75058;42.668;23.396;2024-01-10T02:56:13;4.53;;;1.90;;
8058;SDS011;75058;42.668;23.396;2024-01-10T02:58:42;6.00;;;1.60;;
8058;SDS011;75058;42.668;23.396;2024-01-10T03:01:11;3.20;;;1.97;;
8058;SDS011;75058;42.668;23.396;2024-01-10T03:03:42;3.63;;;1.93;;
8058;SDS011;75058;42.668;23.396;2024-01-10T03:06:10;9.50;;;2.47;;
8058;SDS011;75058;42.668;23.396;2024-01-10T03:08:38;6.53;;;2.57;;
8058;SDS011;75058;42.668;23.396;2024-01-10T03:11:09;7.83;;;2.70;;
8058;SDS011;75058;42.668;23.396;2024-01-10T03:13:38;5.60;;;2.63;;
8058;SDS011;75058;42.668;23.396;2024-01-10T03:16:07;5.27;;;2.97;;
8058;SDS011;75058;42.668;23.396;2024-01-10T03:18:37;5.53;;;3.00;;
8058;SDS011;75058;42.668;23.396;2024-01-10T03:21:07;6.87;;;2.40;;
8058;SDS011;75058;42.668;23.396;2024-01-10T03:23:36;5.87;;;2.80;;
8058;SDS011;75058;42.668;23.396;2024-01-10T03:26:05;5.83;;;3.43;;
8058;SDS011;75058;42.668;23.396;2024-01-10T03:28:34;5.63;;;2.50;;
8058;SDS011;75058;42.668;23.396;2024-01-10T03:31:03;7.37;;;3.20;;
8058;SDS011;75058;42.668;23.396;2024-01-10T03:33:32;5.60;;;2.80;;
8058;SDS011;75058;42.668;23.396;2024-01-10T03:36:03;4.73;;;2.43;;
8058;SDS011;75058;42.668;23.396;2024-01-10T03:38:31;3.47;;;2.23;;
8058;SDS011;75058;42.668;23.396;2024-01-10T03:40:59;5.43;;;2.47;;
8058;SDS011;75058;42.668;23.396;2024-01-10T03:43:27;6.60;;;2.77;;
8058;SDS011;75058;42.668;23.396;2024-01-10T03:45:55;8.03;;;3.30;;
8058;SDS011;75058;42.668;23.396;2024-01-10T03:48:24;8.33;;;3.53;;
8058;SDS011;75058;42.668;23.396;2024-01-10T03:50:52;6.77;;;3.30;;
8058;SDS011;75058;42.668;23.396;2024-01-10T03:53:22;5.63;;;3.33;;
8058;SDS011;75058;42.668;23.396;2024-01-10T03:55:51;4.27;;;2.93;;
8058;SDS011;75058;42.668;23.396;2024-01-10T03:58:19;8.13;;;3.87;;
8058;SDS011;75058;42.668;23.396;2024-01-10T04:00:48;4.80;;;3.23;;
8058;SDS011;75058;42.668;23.396;2024-01-10T04:03:16;6.77;;;3.23;;
8058;SDS011;75058;42.668;23.396;2024-01-10T04:05:44;6.57;;;3.80;;
8058;SDS011;75058;42.668;23.396;2024-01-10T04:08:12;8.23;;;3.60;;
8058;SDS011;75058;42.668;23.396;2024-01-10T04:10:45;7.67;;;3.17;;
8058;SDS011;75058;42.668;23.396;2024-01-10T04:13:13;7.73;;;3.03;;
8058;SDS011;75058;42.668;23.396;2024-01-10T04:15:41;5.83;;;3.00;;
8058;SDS011;75058;42.668;23.396;2024-01-10T04:18:09;7.77;;;3.17;;
8058;SDS011;75058;42.668;23.396;2024-01-10T04:20:43;5.70;;;3.17;;
8058;SDS011;75058;42.668;23.396;2024-01-10T04:23:12;5.30;;;2.90;;
8058;SDS011;75058;42.668;23.396;2024-01-10T04:25:42;4.57;;;3.20;;
8058;SDS011;75058;42.668;23.396;2024-01-10T04:28:11;7.37;;;2.90;;
8058;SDS011;75058;42.668;23.396;2024-01-10T04:30:40;5.33;;;2.90;;
8058;SDS011;75058;42.668;23.396;2024-01-10T04:33:08;5.73;;;2.80;;
8058;SDS011;75058;42.668;23.396;2024-01-10T04:35:37;7.20;;;2.60;;
8058;SDS011;75058;42.668;23.396;2024-01-10T04:38:05;7.10;;;2.70;;
8058;SDS011;75058;42.668;23.396;2024-01-10T04:40:33;8.80;;;2.93;;
8058;SDS011;75058;42.668;23.396;2024-01-10T04:43:02;5.27;;;2.90;;
8058;SDS011;75058;42.668;23.396;2024-01-10T04:45:32;9.17;;;3.47;;
8058;SDS011;75058;42.668;23.396;2024-01-10T04:48:00;4.13;;;2.27;;
8058;SDS011;75058;42.668;23.396;2024-01-10T04:50:29;7.63;;;3.13;;
8058;SDS011;75058;42.668;23.396;2024-01-10T04:52:57;6.23;;;2.43;;
8058;SDS011;75058;42.668;23.396;2024-01-10T04:55:25;5.03;;;3.20;;
8058;SDS011;75058;42.668;23.396;2024-01-10T04:57:54;13.80;;;4.43;;
8058;SDS011;75058;42.668;23.396;2024-01-10T05:00:22;18.67;;;5.57;;
8058;SDS011;75058;42.668;23.396;2024-01-10T05:02:51;18.37;;;5.97;;
8058;SDS011;75058;42.668;23.396;2024-01-10T05:05:20;9.73;;;4.73;;
8058;SDS011;75058;42.668;23.396;2024-01-10T05:07:50;20.03;;;8.17;;
8058;SDS011;75058;42.668;23.396;2024-01-10T05:10:21;18.50;;;5.97;;
8058;SDS011;75058;42.668;23.396;2024-01-10T05:12:49;17.67;;;7.70;;
8058;SDS011;75058;42.668;23.396;2024-01-10T05:15:17;16.87;;;8.00;;
8058;SDS011;75058;42.668;23.396;2024-01-10T05:17:45;19.10;;;5.97;;
8058;SDS011;75058;42.668;23.396;2024-01-10T05:20:16;11.07;;;5.23;;
8058;SDS011;75058;42.668;23.396;2024-01-10T05:22:45;11.87;;;5.23;;
8058;SDS011;75058;42.668;23.396;2024-01-10T05:25:13;10.87;;;5.07;;
8058;SDS011;75058;42.668;23.396;2024-01-10T05:27:45;14.87;;;5.33;;
8058;SDS011;75058;42.668;23.396;2024-01-10T05:30:13;7.80;;;3.87;;
8058;SDS011;75058;42.668;23.396;2024-01-10T05:32:43;7.00;;;2.77;;
8058;SDS011;75058;42.668;23.396;2024-01-10T05:35:10;6.37;;;2.70;;
8058;SDS011;75058;42.668;23.396;2024-01-10T05:37:40;5.10;;;2.83;;
8058;SDS011;75058;42.668;23.396;2024-01-10T05:40:08;8.67;;;2.20;;
8058;SDS011;75058;42.668;23.396;2024-01-10T05:42:37;11.07;;;4.00;;
8058;SDS011;75058;42.668;23.396;2024-01-10T05:45:06;10.80;;;3.53;;
8058;SDS011;75058;42.668;23.396;2024-01-10T05:47:35;6.27;;;2.97;;
8058;SDS011;75058;42.668;23.396;2024-01-10T05:50:03;8.23;;;4.03;;
8058;SDS011;75058;42.668;23.396;2024-01-10T05:52:33;11.87;;;3.57;;
8058;SDS011;75058;42.668;23.396;2024-01-10T05:55:05;9.10;;;3.77;;
8058;SDS011;75058;42.668;23.396;2024-01-10T05:57:35;10.73;;;4.40;;
8058;SDS011;75058;42.668;23.396;2024-01-10T06:00:03;9.80;;;3.60;;
8058;SDS011;75058;42.668;23.396;2024-01-10T06:02:36;6.73;;;2.33;;
8058;SDS011;75058;42.668;23.396;2024-01-10T06:05:05;7.80;;;2.63;;
8058;SDS011;75058;42.668;23.396;2024-01-10T06:07:35;6.43;;;2.60;;
8058;SDS011;75058;42.668;23.396;2024-01-10T06:10:06;3.67;;;2.13;;
8058;SDS011;75058;42.668;23.396;2024-01-10T06:12:34;6.10;;;2.37;;
8058;SDS011;75058;42.668;23.396;2024-01-10T06:15:05;10.10;;;2.37;;
8058;SDS011;75058;42.668;23.396;2024-01-10T06:17:34;3.27;;;1.30;;
8058;SDS011;75058;42.668;23.396;2024-01-10T06:20:03;4.27;;;1.50;;
8058;SDS011;75058;42.668;23.396;2024-01-10T06:22:33;5.33;;;2.53;;
8058;SDS011;75058;42.668;23.396;2024-01-10T06:25:01;4.73;;;2.17;;
8058;SDS011;75058;42.668;23.396;2024-01-10T06:27:32;1.27;;;1.07;;
8058;SDS011;75058;42.668;23.396;2024-01-10T06:30:00;4.47;;;1.23;;
8058;SDS011;75058;42.668;23.396;2024-01-10T06:32:29;3.13;;;1.83;;
8058;SDS011;75058;42.668;23.396;2024-01-10T06:34:57;3.83;;;1.93;;
8058;SDS011;75058;42.668;23.396;2024-01-10T06:37:27;6.47;;;3.13;;
8058;SDS011;75058;42.668;23.396;2024-01-10T06:39:55;7.37;;;3.63;;
8058;SDS011;75058;42.668;23.396;2024-01-10T06:42:23;9.50;;;4.17;;
8058;SDS011;75058;42.668;23.396;2024-01-10T06:44:54;9.90;;;3.50;;
8058;SDS011;75058;42.668;23.396;2024-01-10T06:47:22;12.87;;;2.90;;
8058;SDS011;75058;42.668;23.396;2024-01-10T06:49:50;19.73;;;5.57;;
8058;SDS011;75058;42.668;23.396;2024-01-10T06:52:18;14.17;;;3.80;;
8058;SDS011;75058;42.668;23.396;2024-01-10T06:54:46;10.27;;;4.33;;
8058;SDS011;75058;42.668;23.396;2024-01-10T06:57:14;23.83;;;6.63;;
8058;SDS011;75058;42.668;23.396;2024-01-10T06:59:43;15.97;;;6.33;;
8058;SDS011;75058;42.668;23.396;2024-01-10T07:02:15;25.43;;;6.53;;
8058;SDS011;75058;42.668;23.396;2024-01-10T07:04:43;16.67;;;4.73;;
8058;SDS011;75058;42.668;23.396;2024-01-10T07:07:14;3.57;;;1.43;;
8058;SDS011;75058;42.668;23.396;2024-01-10T07:09:43;7.00;;;3.00;;
8058;SDS011;75058;42.668;23.396;2024-01-10T07:12:12;8.47;;;3.20;;
8058;SDS011;75058;42.668;23.396;2024-01-10T07:14:40;6.80;;;2.80;;
8058;SDS011;75058;42.668;23.396;2024-01-10T07:17:08;6.23;;;2.33;;
8058;SDS011;75058;42.668;23.396;2024-01-10T07:19:38;15.43;;;2.87;;
8058;SDS011;75058;42.668;23.396;2024-01-10T07:22:08;11.97;;;2.03;;
8058;SDS011;75058;42.668;23.396;2024-01-10T07:24:37;3.47;;;2.23;;
8058;SDS011;75058;42.668;23.396;2024-01-10T07:27:06;8.80;;;3.67;;
8058;SDS011;75058;42.668;23.396;2024-01-10T07:29:36;5.07;;;3.00;;
8058;SDS011;75058;42.668;23.396;2024-01-10T07:32:04;18.67;;;4.53;;
8058;SDS011;75058;42.668;23.396;2024-01-10T07:34:39;11.53;;;5.17;;
8058;SDS011;75058;42.668;23.396;2024-01-10T07:37:07;9.80;;;4.63;;
8058;SDS011;75058;42.668;23.396;2024-01-10T07:39:37;18.70;;;4.73;;
8058;SDS011;75058;42.668;23.396;2024-01-10T07:42:05;14.03;;;4.70;;
8058;SDS011;75058;42.668;23.396;2024-01-10T07:44:33;15.20;;;5.13;;
8058;SDS011;75058;42.668;23.396;2024-01-10T07:47:02;8.43;;;3.67;;
8058;SDS011;75058;42.668;23.396;2024-01-10T07:49:30;8.13;;;3.43;;
8058;SDS011;75058;42.668;23.396;2024-01-10T07:52:00;10.60;;;3.80;;
8058;SDS011;75058;42.668;23.396;2024-01-10T07:54:28;13.20;;;4.80;;
8058;SDS011;75058;42.668;23.396;2024-01-10T07:56:58;14.33;;;5.07;;
8058;SDS011;75058;42.668;23.396;2024-01-10T07:59:28;12.90;;;5.47;;
8058;SDS011;75058;42.668;23.396;2024-01-10T08:01:59;12.30;;;4.67;;
8058;SDS011;75058;42.668;23.396;2024-01-10T08:04:28;13.80;;;4.97;;
8058;SDS011;75058;42.668;23.396;2024-01-10T08:06:56;16.90;;;5.53;;
8058;SDS011;75058;42.668;23.396;2024-01-10T08:09:26;14.17;;;4.53;;
8058;SDS011;75058;42.668;23.396;2024-01-10T08:11:54;14.67;;;3.87;;
8058;SDS011;75058;42.668;23.396;2024-01-10T08:14:23;13.03;;;5.03;;
8058;SDS011;75058;42.668;23.396;2024-01-10T08:16:51;12.90;;;5.80;;
8058;SDS011;75058;42.668;23.396;2024-01-10T08:19:21;11.30;;;4.00;;
8058;SDS011;75058;42.668;23.396;2024-01-10T08:21:49;4.83;;;3.27;;
8058;SDS011;75058;42.668;23.396;2024-01-10T08:24:17;13.60;;;4.90;;
8058;SDS011;75058;42.668;23.396;2024-01-10T08:26:47;13.93;;;5.10;;
8058;SDS011;75058;42.668;23.396;2024-01-10T08:29:18;21.70;;;5.43;;
8058;SDS011;75058;42.668;23.396;2024-01-10T08:31:47;29.50;;;7.43;;
8058;SDS011;75058;42.668;23.396;2024-01-10T08:34:15;17.73;;;5.17;;
8058;SDS011;75058;42.668;23.396;2024-01-10T08:36:44;21.20;;;6.00;;
8058;SDS011;75058;42.668;23.396;2024-01-10T08:39:17;19.87;;;5.70;;
8058;SDS011;75058;42.668;23.396;2024-01-10T08:41:45;14.77;;;4.40;;
8058;SDS011;75058;42.668;23.396;2024-01-10T08:44:14;9.47;;;2.80;;
8058;SDS011;75058;42.668;23.396;2024-01-10T08:46:43;3.53;;;1.83;;
8058;SDS011;75058;42.668;23.396;2024-01-10T08:49:11;7.47;;;2.40;;
8058;SDS011;75058;42.668;23.396;2024-01-10T08:51:39;6.80;;;2.27;;
8058;SDS011;75058;42.668;23.396;2024-01-10T08:54:09;7.73;;;2.93;;
8058;SDS011;75058;42.668;23.396;2024-01-10T08:56:39;6.87;;;2.60;;
8058;SDS011;75058;42.668;23.396;2024-01-10T08:59:07;11.90;;;4.07;;
8058;SDS011;75058;42.668;23.396;2024-01-10T09:01:37;5.40;;;2.37;;
8058;SDS011;75058;42.668;23.396;2024-01-10T09:04:05;8.20;;;4.33;;
8058;SDS011;75058;42.668;23.396;2024-01-10T09:06:33;7.43;;;2.50;;
8058;SDS011;75058;42.668;23.396;2024-01-10T09:09:02;7.50;;;2.40;;
8058;SDS011;75058;42.668;23.396;2024-01-10T09:11:30;10.10;;;3.60;;
8058;SDS011;75058;42.668;23.396;2024-01-10T09:14:03;8.87;;;3.60;;
8058;SDS011;75058;42.668;23.396;2024-01-10T09:16:31;12.93;;;3.63;;
8058;SDS011;75058;42.668;23.396;2024-01-10T09:19:02;15.40;;;5.40;;
8058;SDS011;75058;42.668;23.396;2024-01-10T09:21:31;13.17;;;4.93;;
8058;SDS011;75058;42.668;23.396;2024-01-10T09:23:59;12.37;;;4.93;;
8058;SDS011;75058;42.668;23.396;2024-01-10T09:26:47;14.30;;;5.03;;
8058;SDS011;75058;42.668;23.396;2024-01-10T09:29:15;12.13;;;4.57;;
8058;SDS011;75058;42.668;23.396;2024-01-10T09:31:43;14.50;;;4.13;;
8058;SDS011;75058;42.668;23.396;2024-01-10T09:34:18;12.00;;;4.03;;
8058;SDS011;75058;42.668;23.396;2024-01-10T09:36:47;13.37;;;4.60;;
8058;SDS011;75058;42.668;23.396;2024-01-10T09:39:16;12.20;;;5.17;;
8058;SDS011;75058;42.668;23.396;2024-01-10T09:41:45;14.40;;;5.40;;
8058;SDS011;75058;42.668;23.396;2024-01-10T09:44:19;10.20;;;4.23;;
8058;SDS011;75058;42.668;23.396;2024-01-10T09:46:49;12.97;;;6.03;;
8058;SDS011;75058;42.668;23.396;2024-01-10T09:49:21;11.37;;;6.17;;
8058;SDS011;75058;42.668;23.396;2024-01-10T09:51:50;16.87;;;5.70;;
8058;SDS011;75058;42.668;23.396;2024-01-10T09:54:25;10.77;;;4.37;;
8058;SDS011;75058;42.668;23.396;2024-01-10T09:56:53;9.83;;;3.33;;
8058;SDS011;75058;42.668;23.396;2024-01-10T09:59:22;21.37;;;5.67;;
8058;SDS011;75058;42.668;23.396;2024-01-10T10:01:51;10.13;;;3.90;;
8058;SDS011;75058;42.668;23.396;2024-01-10T10:04:24;12.07;;;3.93;;
8058;SDS011;75058;42.668;23.396;2024-01-10T10:06:58;8.10;;;3.23;;
8058;SDS011;75058;42.668;23.396;2024-01-10T10:09:28;16.90;;;4.80;;
8058;SDS011;75058;42.668;23.396;2024-01-10T10:11:57;13.00;;;5.10;;
8058;SDS011;75058;42.668;23.396;2024-01-10T10:14:28;10.60;;;4.63;;
8058;SDS011;75058;42.668;23.396;2024-01-10T10:16:57;8.03;;;3.83;;
8058;SDS011;75058;42.668;23.396;2024-01-10T10:19:45;12.63;;;4.97;;
8058;SDS011;75058;42.668;23.396;2024-01-10T10:22:14;11.30;;;4.07;;
8058;SDS011;75058;42.668;23.396;2024-01-10T10:24:42;9.83;;;4.77;;
8058;SDS011;75058;42.668;23.396;2024-01-10T10:27:16;10.27;;;4.67;;
8058;SDS011;75058;42.668;23.396;2024-01-10T10:29:44;10.23;;;4.57;;
8058;SDS011;75058;42.668;23.396;2024-01-10T10:32:14;15.23;;;4.83;;
8058;SDS011;75058;42.668;23.396;2024-01-10T10:34:46;12.23;;;5.00;;
8058;SDS011;75058;42.668;23.396;2024-01-10T10:37:15;9.77;;;3.83;;
8058;SDS011;75058;42.668;23.396;2024-01-10T10:39:43;10.50;;;4.53;;
8058;SDS011;75058;42.668;23.396;2024-01-10T10:42:11;16.13;;;5.57;;
8058;SDS011;75058;42.668;23.396;2024-01-10T10:44:46;9.07;;;4.43;;
8058;SDS011;75058;42.668;23.396;2024-01-10T10:47:18;13.87;;;4.93;;
8058;SDS011;75058;42.668;23.396;2024-01-10T10:49:52;13.17;;;4.80;;
8058;SDS011;75058;42.668;23.396;2024-01-10T10:52:23;14.10;;;4.93;;
8058;SDS011;75058;42.668;23.396;2024-01-10T10:54:54;12.90;;;5.20;;
8058;SDS011;75058;42.668;23.396;2024-01-10T10:57:24;13.30;;;5.90;;
8058;SDS011;75058;42.668;23.396;2024-01-10T10:59:54;15.70;;;6.33;;
8058;SDS011;75058;42.668;23.396;2024-01-10T11:02:23;14.17;;;5.63;;
8058;SDS011;75058;42.668;23.396;2024-01-10T11:05:01;12.33;;;4.87;;
8058;SDS011;75058;42.668;23.396;2024-01-10T11:07:32;13.40;;;5.77;;
8058;SDS011;75058;42.668;23.396;2024-01-10T11:10:05;10.67;;;5.30;;
8058;SDS011;75058;42.668;23.396;2024-01-10T11:12:43;17.30;;;5.27;;
8058;SDS011;75058;42.668;23.396;2024-01-10T11:15:25;10.47;;;4.13;;
8058;SDS011;75058;42.668;23.396;2024-01-10T11:18:21;17.73;;;6.53;;
8058;SDS011;75058;42.668;23.396;2024-01-10T11:21:11;16.33;;;6.17;;
8058;SDS011;75058;42.668;23.396;2024-01-10T11:23:47;9.83;;;5.23;;
8058;SDS011;75058;42.668;23.396;2024-01-10T11:26:18;10.70;;;5.00;;
8058;SDS011;75058;42.668;23.396;2024-01-10T11:28:47;17.07;;;6.13;;
8058;SDS011;75058;42.668;23.396;2024-01-10T11:31:18;18.80;;;6.73;;
8058;SDS011;75058;42.668;23.396;2024-01-10T11:33:56;15.83;;;6.33;;
8058;SDS011;75058;42.668;23.396;2024-01-10T11:36:26;12.93;;;6.43;;
8058;SDS011;75058;42.668;23.396;2024-01-10T11:38:57;13.03;;;5.50;;
8058;SDS011;75058;42.668;23.396;2024-01-10T11:41:28;14.83;;;5.97;;
8058;SDS011;75058;42.668;23.396;2024-01-10T11:46:58;14.37;;;5.33;;
8058;SDS011;75058;42.668;23.396;2024-01-10T11:49:27;10.20;;;5.20;;
8058;SDS011;75058;42.668;23.396;2024-01-10T11:51:59;12.93;;;4.63;;
8058;SDS011;75058;42.668;23.396;2024-01-10T11:54:38;12.67;;;6.07;;
8058;SDS011;75058;42.668;23.396;2024-01-10T11:57:10;13.20;;;4.47;;
8058;SDS011;75058;42.668;23.396;2024-01-10T11:59:40;15.70;;;6.73;;
8058;SDS011;75058;42.668;23.396;2024-01-10T12:02:11;19.10;;;7.50;;
8058;SDS011;75058;42.668;23.396;2024-01-10T12:04:40;19.57;;;7.50;;
8058;SDS011;75058;42.668;23.396;2024-01-10T12:07:15;21.80;;;7.87;;
8058;SDS011;75058;42.668;23.396;2024-01-10T12:09:46;12.67;;;6.10;;
8058;SDS011;75058;42.668;23.396;2024-01-10T12:12:15;26.37;;;8.83;;
8058;SDS011;75058;42.668;23.396;2024-01-10T12:14:43;18.23;;;6.97;;
8058;SDS011;75058;42.668;23.396;2024-01-10T12:17:12;18.90;;;7.70;;
8058;SDS011;75058;42.668;23.396;2024-01-10T12:19:41;17.23;;;7.40;;
8058;SDS011;75058;42.668;23.396;2024-01-10T12:22:12;17.53;;;7.77;;
8058;SDS011;75058;42.668;23.396;2024-01-10T12:24:45;16.27;;;7.63;;
8058;SDS011;75058;42.668;23.396;2024-01-10T12:27:17;17.23;;;7.63;;
8058;SDS011;75058;42.668;23.396;2024-01-10T12:29:47;20.23;;;9.17;;
8058;SDS011;75058;42.668;23.396;2024-01-10T12:32:19;15.43;;;6.47;;
8058;SDS011;75058;42.668;23.396;2024-01-10T12:34:54;13.77;;;6.43;;
8058;SDS011;75058;42.668;23.396;2024-01-10T12:37:26;18.30;;;7.73;;
8058;SDS011;75058;42.668;23.396;2024-01-10T12:39:57;17.00;;;6.00;;
8058;SDS011;75058;42.668;23.396;2024-01-10T12:42:25;15.33;;;7.30;;
8058;SDS011;75058;42.668;23.396;2024-01-10T12:44:55;14.10;;;6.17;;
8058;SDS011;75058;42.668;23.396;2024-01-10T12:47:24;15.80;;;7.03;;
8058;SDS011;75058;42.668;23.396;2024-01-10T12:49:53;16.10;;;5.93;;
8058;SDS011;75058;42.668;23.396;2024-01-10T12:52:22;13.77;;;6.37;;
8058;SDS011;75058;42.668;23.396;2024-01-10T12:54:52;15.13;;;7.13;;
8058;SDS011;75058;42.668;23.396;2024-01-10T12:57:22;15.77;;;6.10;;
8058;SDS011;75058;42.668;23.396;2024-01-10T12:59:50;15.80;;;5.87;;
8058;SDS011;75058;42.668;23.396;2024-01-10T13:02:19;17.70;;;6.07;;
8058;SDS011;75058;42.668;23.396;2024-01-10T13:04:48;12.93;;;5.83;;
8058;SDS011;75058;42.668;23.396;2024-01-10T13:07:16;14.03;;;5.23;;
8058;SDS011;75058;42.668;23.396;2024-01-10T13:09:44;12.93;;;5.43;;
8058;SDS011;75058;42.668;23.396;2024-01-10T13:12:12;13.67;;;5.37;;
8058;SDS011;75058;42.668;23.396;2024-01-10T13:14:42;10.87;;;5.90;;
8058;SDS011;75058;42.668;23.396;2024-01-10T13:17:10;11.00;;;5.63;;
8058;SDS011;75058;42.668;23.396;2024-01-10T13:19:38;13.03;;;6.27;;
8058;SDS011;75058;42.668;23.396;2024-01-10T13:22:06;13.80;;;6.20;;
8058;SDS011;75058;42.668;23.396;2024-01-10T13:24:34;18.03;;;6.47;;
8058;SDS011;75058;42.668;23.396;2024-01-10T13:27:03;15.33;;;6.93;;
8058;SDS011;75058;42.668;23.396;2024-01-10T13:29:31;13.97;;;6.83;;
8058;SDS011;75058;42.668;23.396;2024-01-10T13:32:02;16.53;;;6.03;;
8058;SDS011;75058;42.668;23.396;2024-01-10T13:34:31;12.03;;;5.57;;
8058;SDS011;75058;42.668;23.396;2024-01-10T13:37:00;19.50;;;6.20;;
8058;SDS011;75058;42.668;23.396;2024-01-10T13:39:29;17.57;;;6.97;;
8058;SDS011;75058;42.668;23.396;2024-01-10T13:41:57;20.53;;;6.20;;
8058;SDS011;75058;42.668;23.396;2024-01-10T13:44:25;19.60;;;7.67;;
8058;SDS011;75058;42.668;23.396;2024-01-10T13:46:53;21.23;;;7.20;;
8058;SDS011;75058;42.668;23.396;2024-01-10T13:49:26;18.90;;;8.23;;
8058;SDS011;75058;42.668;23.396;2024-01-10T13:51:55;16.97;;;7.20;;
8058;SDS011;75058;42.668;23.396;2024-01-10T13:54:23;16.70;;;6.87;;
8058;SDS011;75058;42.668;23.396;2024-01-10T13:56:51;21.43;;;8.27;;
8058;SDS011;75058;42.668;23.396;2024-01-10T13:59:20;15.73;;;7.20;;
8058;SDS011;75058;42.668;23.396;2024-01-10T14:01:48;15.37;;;7.57;;
8058;SDS011;75058;42.668;23.396;2024-01-10T14:04:16;18.03;;;7.47;;
8058;SDS011;75058;42.668;23.396;2024-01-10T14:06:45;18.87;;;7.47;;
8058;SDS011;75058;42.668;23.396;2024-01-10T14:09:13;19.70;;;8.17;;
8058;SDS011;75058;42.668;23.396;2024-01-10T14:11:41;24.93;;;8.97;;
8058;SDS011;75058;42.668;23.396;2024-01-10T14:14:10;14.30;;;7.13;;
8058;SDS011;75058;42.668;23.396;2024-01-10T14:16:39;23.20;;;8.87;;
8058;SDS011;75058;42.668;23.396;2024-01-10T14:19:07;17.40;;;8.10;;
8058;SDS011;75058;42.668;23.396;2024-01-10T14:21:37;21.20;;;8.97;;
8058;SDS011;75058;42.668;23.396;2024-01-10T14:24:06;22.40;;;9.30;;
8058;SDS011;75058;42.668;23.396;2024-01-10T14:26:34;19.63;;;8.57;;
8058;SDS011;75058;42.668;23.396;2024-01-10T14:29:03;21.03;;;8.23;;
8058;SDS011;75058;42.668;23.396;2024-01-10T14:31:31;18.93;;;8.27;;
8058;SDS011;75058;42.668;23.396;2024-01-10T14:34:19;20.60;;;8.77;;
8058;SDS011;75058;42.668;23.396;2024-01-10T14:36:48;18.43;;;8.37;;
8058;SDS011;75058;42.668;23.396;2024-01-10T14:39:18;20.87;;;9.13;;
8058;SDS011;75058;42.668;23.396;2024-01-10T14:41:48;18.13;;;8.23;;
8058;SDS011;75058;42.668;23.396;2024-01-10T14:44:16;15.10;;;7.60;;
8058;SDS011;75058;42.668;23.396;2024-01-10T14:46:45;15.50;;;7.57;;
8058;SDS011;75058;42.668;23.396;2024-01-10T14:49:29;24.33;;;8.87;;
8058;SDS011;75058;42.668;23.396;2024-01-10T14:51:58;24.07;;;8.13;;
8058;SDS011;75058;42.668;23.396;2024-01-10T14:54:27;18.33;;;8.13;;
8058;SDS011;75058;42.668;23.396;2024-01-10T14:56:54;19.33;;;8.30;;
8058;SDS011;75058;42.668;23.396;2024-01-10T14:59:24;18.70;;;8.67;;